createdAt,value
2022-10-17T00:02:17.964Z,17.07
2022-10-17T00:04:45.686Z,17.18
2022-10-17T00:07:14.748Z,17.37
2022-10-17T00:09:44.299Z,16.95
2022-10-17T00:12:12.514Z,17.36
2022-10-17T00:14:40.452Z,17.36
2022-10-17T00:17:08.163Z,17.10
2022-10-17T00:19:35.959Z,17.31
2022-10-17T00:22:03.672Z,16.85
2022-10-17T00:24:33.061Z,17.08
2022-10-17T00:27:00.737Z,17.30
2022-10-17T00:29:28.629Z,17.29
2022-10-17T00:31:56.946Z,17.23
2022-10-17T00:34:24.744Z,16.58
2022-10-17T00:36:53.057Z,16.09
2022-10-17T00:39:20.800Z,15.86
2022-10-17T00:41:49.879Z,15.99
2022-10-17T00:44:55.198Z,16.23
2022-10-17T00:47:24.040Z,16.23
2022-10-17T00:49:51.981Z,16.32
2022-10-17T00:52:22.957Z,16.07
2022-10-17T00:54:55.410Z,16.13
2022-10-17T00:57:25.166Z,15.99
2022-10-17T00:59:55.260Z,15.92
2022-10-17T01:02:23.803Z,15.87
2022-10-17T01:04:55.925Z,15.80
2022-10-17T01:07:24.096Z,15.98
2022-10-17T01:09:51.961Z,15.74
2022-10-17T01:12:23.637Z,15.59
2022-10-17T01:15:04.051Z,15.43
2022-10-17T01:17:41.781Z,15.47
2022-10-17T01:20:47.909Z,15.81
2022-10-17T01:24:01.190Z,15.80
2022-10-17T01:26:43.856Z,15.71
2022-10-17T01:29:42.572Z,15.63
2022-10-17T01:32:17.380Z,15.58
2022-10-17T01:34:53.778Z,15.48
2022-10-17T01:37:29.488Z,15.45
2022-10-17T01:40:04.517Z,15.45
2022-10-17T01:42:38.548Z,15.47
2022-10-17T01:45:14.238Z,15.40
2022-10-17T01:47:44.000Z,15.28
2022-10-17T01:50:16.598Z,15.87
2022-10-17T01:52:47.844Z,16.01
2022-10-17T01:55:21.271Z,15.99
2022-10-17T01:57:51.947Z,16.22
2022-10-17T02:00:23.752Z,16.44
2022-10-17T02:02:59.224Z,16.20
2022-10-17T02:05:30.296Z,16.18
2022-10-17T02:07:57.997Z,15.98
2022-10-17T02:10:36.259Z,15.84
2022-10-17T02:13:10.841Z,15.94
2022-10-17T02:15:54.520Z,15.67
2022-10-17T02:18:42.748Z,15.41
2022-10-17T02:21:19.962Z,15.20
2022-10-17T02:23:54.801Z,15.28
2022-10-17T02:26:29.343Z,15.35
2022-10-17T02:29:08.005Z,15.47
2022-10-17T02:31:40.925Z,15.27
2022-10-17T02:34:17.546Z,14.92
2022-10-17T02:36:53.180Z,14.95
2022-10-17T02:39:24.459Z,15.34
2022-10-17T02:41:55.061Z,15.58
2022-10-17T02:44:23.958Z,15.75
2022-10-17T02:46:56.724Z,15.69
2022-10-17T02:49:29.827Z,15.59
2022-10-17T02:52:04.993Z,15.65
2022-10-17T02:54:38.101Z,15.93
2022-10-17T02:57:11.689Z,15.99
2022-10-17T02:59:42.087Z,16.06
2022-10-17T03:02:09.827Z,15.54
2022-10-17T03:04:39.253Z,15.72
2022-10-17T03:07:07.050Z,15.67
2022-10-17T03:09:34.766Z,15.54
2022-10-17T03:12:02.474Z,15.50
2022-10-17T03:14:30.608Z,15.38
2022-10-17T03:16:58.319Z,15.49
2022-10-17T03:19:27.051Z,15.29
2022-10-17T03:21:56.460Z,15.40
2022-10-17T03:24:24.194Z,15.37
2022-10-17T03:26:51.881Z,15.29
2022-10-17T03:29:19.711Z,15.29
2022-10-17T03:31:48.038Z,15.23
2022-10-17T03:34:16.774Z,15.40
2022-10-17T03:36:44.720Z,15.46
2022-10-17T03:39:14.151Z,15.20
2022-10-17T03:41:41.989Z,15.37
2022-10-17T03:44:10.199Z,15.43
2022-10-17T03:46:37.958Z,15.45
2022-10-17T03:49:05.693Z,15.43
2022-10-17T03:51:34.349Z,15.20
2022-10-17T03:54:05.667Z,14.75
2022-10-17T03:56:35.365Z,14.87
2022-10-17T03:59:06.207Z,14.83
2022-10-17T04:01:36.620Z,14.67
2022-10-17T04:04:04.462Z,14.72
2022-10-17T04:06:35.200Z,14.76
2022-10-17T04:09:03.153Z,14.85
2022-10-17T04:11:55.350Z,14.32
2022-10-17T04:14:23.882Z,14.28
2022-10-17T04:16:53.465Z,14.31
2022-10-17T04:19:22.245Z,14.50
2022-10-17T04:21:50.786Z,14.89
2022-10-17T04:24:19.974Z,15.21
2022-10-17T04:27:05.416Z,14.98
2022-10-17T04:29:36.857Z,15.03
2022-10-17T04:32:15.235Z,14.62
2022-10-17T04:34:49.623Z,14.94
2022-10-17T04:37:18.198Z,14.85
2022-10-17T04:39:47.460Z,15.04
2022-10-17T04:42:16.873Z,15.21
2022-10-17T04:44:44.614Z,15.39
2022-10-17T04:47:14.721Z,15.48
2022-10-17T04:49:42.796Z,14.99
2022-10-17T04:52:11.847Z,14.27
2022-10-17T04:54:46.994Z,14.68
2022-10-17T04:57:16.721Z,15.11
2022-10-17T04:59:52.835Z,15.42
2022-10-17T05:02:55.750Z,15.67
2022-10-17T05:05:23.490Z,15.77
2022-10-17T05:07:54.556Z,15.50
2022-10-17T05:10:26.191Z,15.29
2022-10-17T05:12:56.568Z,15.43
2022-10-17T05:15:28.299Z,15.58
2022-10-17T05:17:56.956Z,15.41
2022-10-17T05:20:26.960Z,15.27
2022-10-17T05:22:55.104Z,15.18
2022-10-17T05:25:24.321Z,15.22
2022-10-17T05:27:52.113Z,15.19
2022-10-17T05:30:21.462Z,15.08
2022-10-17T05:32:53.864Z,14.92
2022-10-17T05:35:22.056Z,14.81
2022-10-17T05:37:49.783Z,14.91
2022-10-17T05:40:18.898Z,14.92
2022-10-17T05:42:47.989Z,14.79
2022-10-17T05:45:17.276Z,14.55
2022-10-17T05:47:46.334Z,14.36
2022-10-17T05:50:14.131Z,14.50
2022-10-17T05:53:03.019Z,14.88
2022-10-17T05:55:30.838Z,14.62
2022-10-17T05:58:00.788Z,14.68
2022-10-17T06:00:33.256Z,14.56
2022-10-17T06:03:02.586Z,14.49
2022-10-17T06:05:30.288Z,14.65
2022-10-17T06:08:01.852Z,14.79
2022-10-17T06:10:32.213Z,14.70
2022-10-17T06:13:00.969Z,14.66
2022-10-17T06:15:28.726Z,14.45
2022-10-17T06:18:03.660Z,14.52
2022-10-17T06:20:31.703Z,14.80
2022-10-17T06:22:59.435Z,14.85
2022-10-17T06:25:42.895Z,14.85
2022-10-17T06:28:11.516Z,14.91
2022-10-17T06:30:39.974Z,14.92
2022-10-17T06:33:09.181Z,15.21
2022-10-17T06:35:37.105Z,15.15
2022-10-17T06:38:05.346Z,15.25
2022-10-17T06:40:34.244Z,15.15
2022-10-17T06:43:01.951Z,15.35
2022-10-17T06:45:52.519Z,15.60
2022-10-17T06:48:34.181Z,15.85
2022-10-17T06:51:13.996Z,16.23
2022-10-17T06:53:54.942Z,16.49
2022-10-17T06:56:41.113Z,16.34
2022-10-17T06:59:27.317Z,16.58
2022-10-17T07:02:06.827Z,17.29
2022-10-17T07:04:36.054Z,17.88
2022-10-17T07:07:04.241Z,18.00
2022-10-17T07:09:34.521Z,18.23
2022-10-17T07:12:05.248Z,18.38
2022-10-17T07:14:33.029Z,18.83
2022-10-17T07:17:01.314Z,19.01
2022-10-17T07:19:31.904Z,19.09
2022-10-17T07:22:00.948Z,19.34
2022-10-17T07:24:29.116Z,19.26
2022-10-17T07:27:08.760Z,19.55
2022-10-17T07:29:36.707Z,19.75
2022-10-17T07:32:10.896Z,20.05
2022-10-17T07:34:38.893Z,20.39
2022-10-17T07:37:09.936Z,20.78
2022-10-17T07:39:40.260Z,20.76
2022-10-17T07:42:08.885Z,21.08
2022-10-17T07:44:36.695Z,20.87
2022-10-17T07:47:04.982Z,21.08
2022-10-17T07:49:32.854Z,20.58
2022-10-17T07:52:00.600Z,21.04
2022-10-17T07:54:29.648Z,21.06
2022-10-17T07:56:57.367Z,21.19
2022-10-17T07:59:25.153Z,21.03
2022-10-17T08:01:56.007Z,21.22
2022-10-17T08:04:24.261Z,21.05
2022-10-17T08:06:56.452Z,21.14
2022-10-17T08:09:29.633Z,21.48
2022-10-17T08:11:57.336Z,21.54
2022-10-17T08:14:25.137Z,21.78
2022-10-17T08:16:55.284Z,21.74
2022-10-17T08:19:23.079Z,21.88
2022-10-17T08:21:51.787Z,21.81
2022-10-17T08:24:19.634Z,21.95
2022-10-17T08:26:51.624Z,21.92
2022-10-17T08:29:19.885Z,21.59
2022-10-17T08:31:48.401Z,22.20
2022-10-17T08:34:17.718Z,22.66
2022-10-17T08:36:45.451Z,23.12
2022-10-17T08:39:13.136Z,22.63
2022-10-17T08:42:02.328Z,23.30
2022-10-17T08:44:40.597Z,23.77
2022-10-17T08:47:15.374Z,24.14
2022-10-17T08:49:48.588Z,23.76
2022-10-17T08:52:23.069Z,23.28
2022-10-17T08:54:52.483Z,22.78
2022-10-17T08:57:21.745Z,23.54
2022-10-17T08:59:53.011Z,24.08
2022-10-17T09:02:32.935Z,23.95
2022-10-17T09:05:29.096Z,23.91
2022-10-17T09:08:08.737Z,23.82
2022-10-17T09:10:50.277Z,24.10
2022-10-17T09:13:32.262Z,24.43
2022-10-17T09:16:25.480Z,24.82
2022-10-17T09:19:04.069Z,24.81
2022-10-17T09:21:43.785Z,24.55
2022-10-17T09:24:17.821Z,24.49
2022-10-17T09:26:46.967Z,24.75
2022-10-17T09:29:22.490Z,25.04
2022-10-17T09:34:28.897Z,25.16
2022-10-17T09:36:58.759Z,25.79
2022-10-17T09:39:29.121Z,25.86
2022-10-17T09:41:59.145Z,26.10
2022-10-17T09:44:31.905Z,26.12
2022-10-17T09:47:22.325Z,26.24
2022-10-17T09:49:51.464Z,26.70
2022-10-17T09:52:22.535Z,27.06
2022-10-17T09:54:52.285Z,26.93
2022-10-17T09:57:21.811Z,26.67
2022-10-17T09:59:58.827Z,26.83
2022-10-17T10:02:29.038Z,27.32
2022-10-17T10:05:07.474Z,27.66
2022-10-17T10:07:38.950Z,28.25
2022-10-17T10:10:24.103Z,28.25
2022-10-17T10:13:05.437Z,28.37
2022-10-17T10:15:38.618Z,28.02
2022-10-17T10:21:10.746Z,28.12
2022-10-17T10:23:42.940Z,28.16
2022-10-17T10:26:22.557Z,28.63
2022-10-17T10:28:57.651Z,27.74
2022-10-17T10:31:33.500Z,28.69
2022-10-17T10:34:04.256Z,28.85
2022-10-17T10:36:46.972Z,29.74
2022-10-17T10:39:34.733Z,29.87
2022-10-17T10:42:04.187Z,29.57
2022-10-17T10:44:34.026Z,30.39
2022-10-17T10:47:20.840Z,30.36
2022-10-17T10:49:49.095Z,30.51
2022-10-17T10:52:26.121Z,31.32
2022-10-17T10:55:04.969Z,31.57
2022-10-17T10:57:37.811Z,32.18
2022-10-17T11:00:13.897Z,32.05
2022-10-17T11:02:52.768Z,30.41
2022-10-17T11:05:25.713Z,31.79
2022-10-17T11:08:00.527Z,32.11
2022-10-17T11:10:36.702Z,33.11
2022-10-17T11:13:07.667Z,33.17
2022-10-17T11:15:41.393Z,30.23
2022-10-17T11:18:17.490Z,28.46
2022-10-17T11:20:52.677Z,26.72
2022-10-17T11:23:25.539Z,29.26
2022-10-17T11:25:55.598Z,28.73
2022-10-17T11:28:25.778Z,29.08
2022-10-17T11:30:58.647Z,26.48
2022-10-17T11:33:31.671Z,27.70
2022-10-17T11:36:04.343Z,28.47
2022-10-17T11:38:41.813Z,31.31
2022-10-17T11:41:13.409Z,33.00
2022-10-17T11:43:49.878Z,33.91
2022-10-17T11:46:23.717Z,34.77
2022-10-17T11:49:05.722Z,31.84
2022-10-17T11:54:37.823Z,28.91
2022-10-17T11:57:19.359Z,29.70
2022-10-17T12:00:00.396Z,31.27
2022-10-17T12:02:37.863Z,30.38
2022-10-17T12:05:20.946Z,30.55
2022-10-17T12:07:53.491Z,29.68
2022-10-17T12:10:33.934Z,31.48
2022-10-17T12:13:35.617Z,32.50
2022-10-17T12:16:51.246Z,33.58
2022-10-17T12:19:32.623Z,30.22
2022-10-17T12:22:06.717Z,30.55
2022-10-17T12:24:38.480Z,30.92
2022-10-17T12:27:38.093Z,29.57
2022-10-17T12:30:15.919Z,26.65
2022-10-17T12:33:08.326Z,27.43
2022-10-17T12:35:37.968Z,27.95
2022-10-17T12:38:31.004Z,30.22
2022-10-17T12:41:03.340Z,28.70
2022-10-17T12:43:44.959Z,26.49
2022-10-17T12:46:13.304Z,27.43
2022-10-17T12:49:20.569Z,28.96
2022-10-17T12:52:15.815Z,29.25
2022-10-17T12:55:00.265Z,30.14
2022-10-17T12:57:42.332Z,28.81
2022-10-17T13:00:19.021Z,27.59
2022-10-17T13:02:48.120Z,28.47
2022-10-17T13:05:20.242Z,28.59
2022-10-17T13:07:50.417Z,26.57
2022-10-17T13:10:24.347Z,25.78
2022-10-17T13:12:55.927Z,25.99
2022-10-17T13:15:23.925Z,26.00
2022-10-17T13:17:59.310Z,26.07
2022-10-17T13:20:31.476Z,26.36
2022-10-17T13:23:00.045Z,25.71
2022-10-17T13:25:29.579Z,25.97
2022-10-17T13:28:15.755Z,26.65
2022-10-17T13:30:49.623Z,26.22
2022-10-17T13:33:31.557Z,26.07
2022-10-17T13:36:01.011Z,26.75
2022-10-17T13:38:34.877Z,25.99
2022-10-17T13:41:34.170Z,26.31
2022-10-17T13:44:02.570Z,25.86
2022-10-17T13:46:39.922Z,26.94
2022-10-17T13:49:16.422Z,26.91
2022-10-17T13:51:46.925Z,27.77
2022-10-17T13:54:19.962Z,27.32
2022-10-17T13:56:56.891Z,25.74
2022-10-17T13:59:26.936Z,25.00
2022-10-17T14:01:55.879Z,24.97
2022-10-17T14:04:23.615Z,25.44
2022-10-17T14:06:52.487Z,25.04
2022-10-17T14:09:24.579Z,24.81
2022-10-17T14:12:02.832Z,24.99
2022-10-17T14:14:46.223Z,24.58
2022-10-17T14:17:24.729Z,24.95
2022-10-17T14:20:16.071Z,25.24
2022-10-17T14:22:47.047Z,25.88
2022-10-17T14:25:36.672Z,26.57
2022-10-17T14:28:15.830Z,27.35
2022-10-17T14:31:01.407Z,26.84
2022-10-17T14:33:31.540Z,26.86
2022-10-17T14:36:02.847Z,28.12
2022-10-17T14:38:31.341Z,28.66
2022-10-17T14:41:40.850Z,29.38
2022-10-17T14:43:56.644Z,29.70
2022-10-17T14:46:24.560Z,29.87
2022-10-17T14:48:58.118Z,29.50
2022-10-17T14:51:25.808Z,29.41
2022-10-17T14:54:05.856Z,29.50
2022-10-17T14:56:42.750Z,30.21
2022-10-17T14:59:15.683Z,28.53
2022-10-17T15:01:49.394Z,27.15
2022-10-17T15:04:17.209Z,26.41
2022-10-17T15:06:45.671Z,26.32
2022-10-17T15:09:13.413Z,26.24
2022-10-17T15:11:41.170Z,26.32
2022-10-17T15:14:08.837Z,26.25
2022-10-17T15:16:39.384Z,26.43
2022-10-17T15:19:07.133Z,25.83
2022-10-17T15:21:40.589Z,25.57
2022-10-17T15:24:09.710Z,25.82
2022-10-17T15:26:37.950Z,26.07
2022-10-17T15:29:05.691Z,25.78
2022-10-17T15:31:36.403Z,25.94
2022-10-17T15:34:05.533Z,26.47
2022-10-17T15:36:39.451Z,26.06
2022-10-17T15:39:07.445Z,26.08
2022-10-17T15:41:35.468Z,25.53
2022-10-17T15:44:03.199Z,25.20
2022-10-17T15:46:34.204Z,25.32
2022-10-17T15:49:03.895Z,25.12
2022-10-17T15:51:32.938Z,24.65
2022-10-17T15:54:01.396Z,24.73
2022-10-17T15:56:32.111Z,24.35
2022-10-17T15:59:00.036Z,24.35
2022-10-17T16:01:30.824Z,24.14
2022-10-17T16:03:58.949Z,23.92
2022-10-17T16:06:27.527Z,23.75
2022-10-17T16:08:56.669Z,23.56
2022-10-17T16:11:31.662Z,23.40
2022-10-17T16:14:01.386Z,23.18
2022-10-17T16:16:29.372Z,23.20
2022-10-17T16:19:00.357Z,23.11
2022-10-17T16:24:05.884Z,22.87
2022-10-17T16:26:33.615Z,22.89
2022-10-17T16:29:03.072Z,22.80
2022-10-17T16:31:33.168Z,22.92
2022-10-17T16:34:02.447Z,23.12
2022-10-17T16:36:30.562Z,23.88
2022-10-17T16:38:58.369Z,24.32
2022-10-17T16:41:29.093Z,24.49
2022-10-17T16:43:58.944Z,23.93
2022-10-17T16:46:29.408Z,23.37
2022-10-17T16:48:57.946Z,23.43
2022-10-17T16:51:26.148Z,23.32
2022-10-17T16:53:56.393Z,23.70
2022-10-17T16:56:25.553Z,23.14
2022-10-17T16:58:54.601Z,22.66
2022-10-17T17:01:24.802Z,23.08
2022-10-17T17:03:53.693Z,22.30
2022-10-17T17:06:24.431Z,21.41
2022-10-17T17:08:52.420Z,21.31
2022-10-17T17:11:22.052Z,21.28
2022-10-17T17:13:49.961Z,21.53
2022-10-17T17:16:21.377Z,21.59
2022-10-17T17:18:54.488Z,21.86
2022-10-17T17:21:22.125Z,21.55
2022-10-17T17:23:49.858Z,21.58
2022-10-17T17:26:20.291Z,21.84
2022-10-17T17:28:48.589Z,21.79
2022-10-17T17:31:18.063Z,21.97
2022-10-17T17:33:48.175Z,22.13
2022-10-17T17:36:18.360Z,21.87
2022-10-17T17:38:47.116Z,22.22
2022-10-17T17:41:16.579Z,22.03
2022-10-17T17:43:45.993Z,22.22
2022-10-17T17:46:14.501Z,22.06
2022-10-17T17:48:43.225Z,22.08
2022-10-17T17:51:14.929Z,22.26
2022-10-17T17:53:42.624Z,22.31
2022-10-17T17:56:14.072Z,22.36
2022-10-17T17:58:45.537Z,22.33
2022-10-17T18:01:18.241Z,22.41
2022-10-17T18:03:46.923Z,22.51
2022-10-17T18:06:16.733Z,22.53
2022-10-17T18:08:45.864Z,22.42
2022-10-17T18:11:17.044Z,21.67
2022-10-17T18:13:47.913Z,22.06
2022-10-17T18:16:16.774Z,22.06
2022-10-17T18:18:45.986Z,22.19
2022-10-17T18:21:16.027Z,22.00
2022-10-17T18:23:45.080Z,21.97
2022-10-17T18:26:14.358Z,21.89
2022-10-17T18:28:43.385Z,21.77
2022-10-17T18:31:13.506Z,21.43
2022-10-17T18:33:41.401Z,21.65
2022-10-17T18:36:11.396Z,21.45
2022-10-17T18:38:40.513Z,21.47
2022-10-17T18:41:11.911Z,21.69
2022-10-17T18:43:44.284Z,20.87
2022-10-17T18:46:14.825Z,21.32
2022-10-17T18:48:44.328Z,21.55
2022-10-17T18:51:12.483Z,21.40
2022-10-17T18:53:42.350Z,21.31
2022-10-17T18:56:10.518Z,21.26
2022-10-17T18:58:38.840Z,21.34
2022-10-17T19:01:11.405Z,21.13
2022-10-17T19:03:39.475Z,20.98
2022-10-17T19:06:10.819Z,19.58
2022-10-17T19:08:39.371Z,18.86
2022-10-17T19:11:10.230Z,19.35
2022-10-17T19:13:38.407Z,18.76
2022-10-17T19:16:07.713Z,19.15
2022-10-17T19:18:35.823Z,19.35
2022-10-17T19:21:04.494Z,20.03
2022-10-17T19:23:32.587Z,20.41
2022-10-17T19:26:03.570Z,20.51
2022-10-17T19:28:32.886Z,20.57
2022-10-17T19:31:01.125Z,20.79
2022-10-17T19:36:04.172Z,20.65
2022-10-17T19:38:32.197Z,20.57
2022-10-17T19:43:36.187Z,20.54
2022-10-17T19:46:06.040Z,20.24
2022-10-17T19:48:35.169Z,20.20
2022-10-17T19:51:02.915Z,19.76
2022-10-17T19:53:30.676Z,19.49
2022-10-17T19:55:59.394Z,19.79
2022-10-17T19:58:28.206Z,19.74
2022-10-17T20:01:01.000Z,19.72
2022-10-17T20:03:29.948Z,19.95
2022-10-17T20:05:57.738Z,20.07
2022-10-17T20:10:54.092Z,20.11
2022-10-17T20:13:22.749Z,20.05
2022-10-17T20:15:59.096Z,20.05
2022-10-17T20:18:27.869Z,20.10
2022-10-17T20:20:55.998Z,20.08
2022-10-17T20:23:24.053Z,19.73
2022-10-17T20:26:07.895Z,19.45
2022-10-17T20:28:47.059Z,19.52
2022-10-17T20:31:16.754Z,19.63
2022-10-17T20:33:44.493Z,18.52
2022-10-17T20:36:15.131Z,18.18
2022-10-17T20:38:42.832Z,18.89
2022-10-17T20:41:11.495Z,19.29
2022-10-17T20:43:39.544Z,19.30
2022-10-17T20:46:22.847Z,19.42
2022-10-17T20:48:54.222Z,19.51
2022-10-17T20:51:22.858Z,19.20
2022-10-17T20:53:50.633Z,19.17
2022-10-17T20:56:20.980Z,18.94
2022-10-17T20:58:53.183Z,18.93
2022-10-17T21:01:21.857Z,19.14
2022-10-17T21:03:49.684Z,19.24
2022-10-17T21:06:19.767Z,19.22
2022-10-17T21:08:48.257Z,18.69
2022-10-17T21:11:18.102Z,18.44
2022-10-17T21:13:46.964Z,18.57
2022-10-17T21:16:17.052Z,18.71
2022-10-17T21:18:45.548Z,18.69
2022-10-17T21:21:16.304Z,18.57
2022-10-17T21:23:48.167Z,18.72
2022-10-17T21:26:17.087Z,18.59
2022-10-17T21:28:46.386Z,18.75
2022-10-17T21:31:16.254Z,18.84
2022-10-17T21:33:45.575Z,18.87
2022-10-17T21:36:16.247Z,18.93
2022-10-17T21:38:46.538Z,18.68
2022-10-17T21:41:16.004Z,18.70
2022-10-17T21:43:44.486Z,18.42
2022-10-17T21:46:14.231Z,18.27
2022-10-17T21:48:42.332Z,17.98
2022-10-17T21:51:11.605Z,17.58
2022-10-17T21:53:39.885Z,17.91
2022-10-17T21:56:12.155Z,18.07
2022-10-17T21:58:40.145Z,18.17
2022-10-17T22:01:09.723Z,18.29
2022-10-17T22:03:42.632Z,18.38
2022-10-17T22:06:37.712Z,18.03
2022-10-17T22:09:04.619Z,17.74
2022-10-17T22:11:35.585Z,17.46
2022-10-17T22:14:07.089Z,17.91
2022-10-17T22:16:35.705Z,17.88
2022-10-17T22:19:06.432Z,18.08
2022-10-17T22:21:36.122Z,17.73
2022-10-17T22:24:06.000Z,17.21
2022-10-17T22:26:36.663Z,17.15
2022-10-17T22:29:05.310Z,17.32
2022-10-17T22:31:33.396Z,17.23
2022-10-17T22:34:01.301Z,17.26
2022-10-17T22:36:29.189Z,17.40
2022-10-17T22:38:56.982Z,16.05
2022-10-17T22:41:24.851Z,15.60
2022-10-17T22:43:53.884Z,16.43
2022-10-17T22:46:21.622Z,16.91
2022-10-17T22:48:49.285Z,17.22
2022-10-17T22:51:17.372Z,17.41
2022-10-17T22:53:45.174Z,17.63
2022-10-17T22:56:15.145Z,17.51
2022-10-17T22:58:43.122Z,16.83
2022-10-17T23:01:16.124Z,17.02
2022-10-17T23:03:44.422Z,17.41
2022-10-17T23:06:12.425Z,17.33
2022-10-17T23:08:41.080Z,17.61
2022-10-17T23:11:09.816Z,17.74
2022-10-17T23:13:37.733Z,17.62
2022-10-17T23:16:05.909Z,17.86
2022-10-17T23:18:34.929Z,18.04
2022-10-17T23:21:02.629Z,17.63
2022-10-17T23:23:30.322Z,16.48
2022-10-17T23:26:05.117Z,15.60
2022-10-17T23:28:35.351Z,16.52
2022-10-17T23:31:13.710Z,16.68
2022-10-17T23:33:44.832Z,16.73
2022-10-17T23:36:13.391Z,17.16
2022-10-17T23:38:42.936Z,17.42
2022-10-17T23:41:11.133Z,17.51
2022-10-17T23:43:38.866Z,17.39
2022-10-17T23:46:08.137Z,17.21
2022-10-17T23:48:36.059Z,17.46
2022-10-17T23:51:05.391Z,17.48
2022-10-17T23:53:33.069Z,17.64
2022-10-17T23:56:00.830Z,17.80
2022-10-17T23:58:28.541Z,17.77
